ADDS TAF Board (Experimental) INFO Settings
IDs: Format: Expanded Condensed

KPHL - Philadelphia Intl, PA, US

Issued at 0520 UTC 11 Feb 2016
Updated at: 0623 UTC 11 Feb 2016
Time0554Z 11/07Z 11/08Z 11/09Z 11/10Z 11/11Z 11/12Z 11/13Z 11/14Z 11/15Z 11/16Z 11/17Z 11/18Z 11/19Z
Type OBS PRVL PRVL PRVL PRVL PRVL PRVL PRVL PRVL PRVL PRVL PRVL PRVL PRVL
VIS 10 >6 >6 >6 >6 >6 >6 >6 >6 >6 >6 >6 >6 >6
CIG 250 80 80 80 80 80 80 80 50 50 50 50 50 50
Cover BKN BKN BKN BKN BKN BKN BKN BKN BKN BKN BKN BKN BKN BKN
FltCat VFR VFR VFR VFR VFR VFR VFR VFR VFR VFR VFR VFR VFR VFR
WX -- -- -- -- -- -- -- -- -- -- -- -- -- --
WDir 290 290 290 290 290 290 290 290 280 280 280 280 280 280
WSpd 13 12 12 12 12 12 12 12 18 18 18 18 18 18
WGst -- 20 20 20 20 20 20 20 30 30 30 30 30 30
R08/26
XWnd 7 7 7 7 7 7 7 7 8 8 8 8 8 8
XGst -- 11 11 11 11 11 11 11 13 13 13 13 13 13
HWnd -11 -10 -10 -10 -10 -10 -10 -10 -16 -16 -16 -16 -16 -16
HGst -- -16 -16 -16 -16 -16 -16 -16 -27 -27 -27 -27 -27 -27
R09/27
XWnd 7 7 7 7 7 7 7 7 8 8 8 8 8 8
XGst -- 11 11 11 11 11 11 11 13 13 13 13 13 13
HWnd -11 -10 -10 -10 -10 -10 -10 -10 -16 -16 -16 -16 -16 -16
HGst -- -16 -16 -16 -16 -16 -16 -16 -27 -27 -27 -27 -27 -27
R17/35
XWnd -10 -9 -9 -9 -9 -9 -9 -9 -15 -15 -15 -15 -15 -15
XGst -- -15 -15 -15 -15 -15 -15 -15 -26 -26 -26 -26 -26 -26
HWnd -9 -8 -8 -8 -8 -8 -8 -8 -9 -9 -9 -9 -9 -9
HGst -- -13 -13 -13 -13 -13 -13 -13 -15 -15 -15 -15 -15 -15

NOTE: TEMPO conditions in [brackets]. Keep in mind TEMPO conditions might be better (lower impact) than prevailing conditions.

Raw TAF
KPHL 110520Z 1106/1212 29012G20KT P6SM SCT045 BKN080
  FM111400 28018G30KT P6SM BKN050
  FM112300 29014G20KT P6SM SCT050
  FM120400 29011KT P6SM FEW050


Raw METAR
KPHL 110554Z 29013KT 10SM FEW090 SCT160 BKN250 M03/M12 A2987 RMK AO2 SLP115 T10331122 10006 21033 53010 $
KPHL 110454Z 30016G25KT 10SM FEW015 BKN060 OVC075 M02/M12 A2986 RMK AO2 SLP110 T10221122 400221022 $
KPHL 110354Z 29017G27KT 10SM FEW065 OVC090 M02/M12 A2985 RMK AO2 PK WND 30027/0347 SLP107 T10171122 $

METAR Board
Radar Display
Forecast Discussion

TAF Board Legend

Potential Impact
Threat None Slight Moderate High
Visibility (sm) ≥5.1 5.1>X≥3 3>X≥1 <1
Ceiling (100 ft) ≥30.1 30.1>X≥10 10>X≥5 <5
Wind Speed (kt) <10 10≤X<20 20≤X<30 ≥30
Wind Gust (kt) <15 15≤X<25 25≤X<35 ≥35
Weather No Wx Reported VCTS,-TS,-FZRA,SN TS,FZRA +TS,+FZRA,+SN